Time;durP1;ratioP1;P1;durP2;ratioP2;P2;SDS_P1;SDS_P2;PMS_P1;PMS_P2;Temp;Humidity;BMP_temperature;BMP_pressure;BME280_temperature;BME280_humidity;BME280_pressure;Samples;Min_cycle;Max_cycle;Signal;HPM_P1;HPM_P2
2021/11/21 00:01:46;;;;;;;;;29.00;27.00;;;;;-147.17;100.00;50084.19;5032709;28;51178;-66
2021/11/21 00:04:11;;;;;;;;;37.50;32.25;;;;;-147.17;100.00;50068.44;5030180;28;50963;-66
2021/11/21 00:06:37;;;;;;;;;36.50;32.25;;;;;-147.17;100.00;50078.28;5030449;28;51253;-68
2021/11/21 00:09:02;;;;;;;;;23.25;22.75;;;;;-147.17;100.00;50054.66;5027093;28;51158;-66
2021/11/21 00:11:28;;;;;;;;;30.75;27.25;;;;;-147.17;100.00;50076.31;5038492;28;51379;-63
2021/11/21 00:13:53;;;;;;;;;22.00;21.00;;;;;-147.17;100.00;50064.50;5023527;28;51217;-67
2021/11/21 00:16:19;;;;;;;;;30.25;26.00;;;;;-147.17;100.00;50068.44;5018759;28;52245;-68
2021/11/21 00:18:45;;;;;;;;;21.75;21.00;;;;;-147.17;100.00;50082.22;5025123;28;51575;-69
2021/11/21 00:21:11;;;;;;;;;31.00;27.50;;;;;-147.17;100.00;50080.25;5021848;28;52407;-70
2021/11/21 00:23:37;;;;;;;;;27.00;22.75;;;;;-147.17;100.00;50062.53;5024794;28;51291;-70
2021/11/21 00:26:02;;;;;;;;;26.50;21.50;;;;;-147.17;100.00;50084.19;5026129;28;51220;-68
2021/11/21 00:28:28;;;;;;;;;28.50;25.75;;;;;-147.17;100.00;50107.78;5026199;28;51329;-73
2021/11/21 00:30:54;;;;;;;;;26.75;26.00;;;;;-147.17;100.00;50103.84;5021119;28;51294;-71
2021/11/21 00:33:19;;;;;;;;;25.25;23.50;;;;;-147.17;100.00;50076.31;5023516;28;51672;-69
2021/11/21 00:35:45;;;;;;;;;28.00;23.50;;;;;-147.17;100.00;50092.03;5021578;28;51144;-66
2021/11/21 00:38:11;;;;;;;;;25.50;22.75;;;;;-147.17;100.00;50072.38;5024785;28;51415;-68
2021/11/21 00:40:36;;;;;;;;;22.75;21.00;;;;;-147.17;100.00;50070.41;5021398;28;51833;-70
2021/11/21 00:43:02;;;;;;;;;24.25;21.00;;;;;-147.17;100.00;50115.66;5018685;28;51142;-70
2021/11/21 00:45:31;;;;;;;;;18.00;17.00;;;;;-147.17;100.00;50099.91;5021093;28;51321;-72
2021/11/21 00:47:58;;;;;;;;;24.25;22.00;;;;;-147.17;100.00;50086.16;5020619;28;51314;-67
2021/11/21 00:50:26;;;;;;;;;22.25;19.75;;;;;-147.17;100.00;50107.78;5021933;28;51148;-69
2021/11/21 00:53:02;;;;;;;;;19.75;16.75;;;;;-147.17;100.00;50113.69;5018740;28;51252;-67
2021/11/21 00:55:42;;;;;;;;;20.25;20.25;;;;;-147.17;100.00;50095.97;5022905;28;51361;-70
2021/11/21 00:58:10;;;;;;;;;23.50;20.25;;;;;-147.17;100.00;50082.22;5021613;28;51236;-69
2021/11/21 01:00:38;;;;;;;;;21.25;20.00;;;;;-147.17;100.00;50123.53;5025601;28;52060;-68
2021/11/21 01:03:05;;;;;;;;;20.00;18.00;;;;;-147.17;100.00;50109.75;5020894;28;51196;-67
2021/11/21 01:05:30;;;;;;;;;19.50;19.50;;;;;-147.17;100.00;50113.69;5019384;28;51073;-67
2021/11/21 01:07:56;;;;;;;;;21.50;20.25;;;;;-147.17;100.00;50099.91;5042406;28;51297;-66
2021/11/21 01:10:22;;;;;;;;;32.00;27.25;;;;;-147.17;100.00;50088.13;5031353;28;53329;-67
2021/11/21 01:12:48;;;;;;;;;27.00;24.00;;;;;-147.17;100.00;50080.25;5046498;28;51114;-71
2021/11/21 01:15:20;;;;;;;;;26.75;23.75;;;;;-147.17;100.00;50115.66;5020384;28;51168;-68
2021/11/21 01:17:47;;;;;;;;;60.25;48.25;;;;;-147.17;100.00;50076.31;5025881;28;51481;-68
2021/11/21 01:20:12;;;;;;;;;33.50;29.50;;;;;-147.17;100.00;50064.50;5020998;28;51844;-69
2021/11/21 01:22:38;;;;;;;;;26.25;23.75;;;;;-147.17;100.00;50095.97;5013526;28;51092;-68
2021/11/21 01:25:07;;;;;;;;;27.00;23.50;;;;;-147.17;100.00;50092.03;5015234;28;51103;-66
2021/11/21 01:27:33;;;;;;;;;24.25;22.00;;;;;-147.17;100.00;50082.22;5020359;28;51217;-68
2021/11/21 01:29:58;;;;;;;;;29.50;27.50;;;;;-147.17;100.00;50099.91;5034621;28;51112;-67
2021/11/21 01:32:25;;;;;;;;;23.50;21.50;;;;;-147.17;100.00;50068.44;5032164;28;50924;-66
2021/11/21 01:34:51;;;;;;;;;23.50;22.50;;;;;-147.17;100.00;50076.31;5017100;28;51232;-66
2021/11/21 01:37:17;;;;;;;;;28.25;25.00;;;;;-147.17;100.00;50070.41;5034471;28;51170;-67
2021/11/21 01:39:42;;;;;;;;;33.25;30.50;;;;;-147.17;100.00;50066.47;5034354;28;52855;-66
2021/11/21 01:42:08;;;;;;;;;27.75;26.50;;;;;-147.17;100.00;50088.13;5034625;28;50997;-66
2021/11/21 01:44:33;;;;;;;;;28.25;23.25;;;;;-147.17;100.00;50084.19;5034812;28;51054;-67
2021/11/21 01:46:58;;;;;;;;;35.75;31.50;;;;;-147.17;100.00;50064.50;5033512;28;51424;-67
2021/11/21 01:49:24;;;;;;;;;29.00;26.75;;;;;-147.17;100.00;50068.44;5033622;28;51184;-69
2021/11/21 01:51:50;;;;;;;;;24.50;21.25;;;;;-147.17;100.00;50060.56;5033204;28;51265;-68
2021/11/21 01:54:17;;;;;;;;;27.00;25.25;;;;;-147.17;100.00;50092.03;5031464;28;51174;-69
2021/11/21 01:56:45;;;;;;;;;31.25;27.00;;;;;-147.17;100.00;50076.31;5017803;28;51122;-68
2021/11/21 01:59:11;;;;;;;;;27.25;27.00;;;;;-147.17;100.00;50107.78;5029669;28;51055;-69
2021/11/21 02:01:36;;;;;;;;;33.00;27.25;;;;;-147.17;100.00;50103.84;5033159;28;51122;-67
2021/11/21 02:04:02;;;;;;;;;27.75;26.25;;;;;-147.17;100.00;50094.00;5029378;28;51097;-66
2021/11/21 02:06:27;;;;;;;;;25.75;21.00;;;;;-147.17;100.00;50062.53;5036080;28;51029;-65
2021/11/21 02:08:56;;;;;;;;;26.50;21.50;;;;;-147.17;100.00;50068.44;5027561;28;51596;-68
2021/11/21 02:11:22;;;;;;;;;26.75;22.50;;;;;-147.17;100.00;50025.13;5033755;28;50947;-68
2021/11/21 02:13:49;;;;;;;;;27.25;23.50;;;;;-147.17;100.00;50064.50;5039593;28;52288;-70
2021/11/21 02:16:19;;;;;;;;;23.50;22.75;;;;;-147.17;100.00;50054.66;5041521;28;51360;-69
2021/11/21 02:18:48;;;;;;;;;26.25;23.50;;;;;-147.17;100.00;50062.53;5039010;28;52951;-66
2021/11/21 02:21:15;;;;;;;;;27.75;25.25;;;;;-147.17;100.00;50040.88;5036665;28;51160;-67
2021/11/21 02:23:41;;;;;;;;;28.00;25.75;;;;;-147.17;100.00;50050.72;5021656;28;51152;-66
2021/11/21 02:26:07;;;;;;;;;26.50;24.25;;;;;-147.17;100.00;50066.47;5032938;28;51144;-64
2021/11/21 02:28:36;;;;;;;;;31.50;27.50;;;;;-147.17;100.00;50052.69;5046347;28;50938;-65
2021/11/21 02:31:03;;;;;;;;;27.25;26.75;;;;;-147.17;100.00;50021.19;5037642;28;50929;-64
2021/11/21 02:33:29;;;;;;;;;31.75;30.25;;;;;-147.17;100.00;50038.91;5040497;28;51026;-69
2021/11/21 02:35:59;;;;;;;;;28.50;26.75;;;;;-147.17;100.00;50033.00;5041063;28;51062;-68
2021/11/21 02:38:26;;;;;;;;;29.00;27.00;;;;;-147.17;100.00;50068.44;5040733;28;52072;-68
2021/11/21 02:40:53;;;;;;;;;25.25;21.75;;;;;-147.17;100.00;50038.91;5040416;28;50982;-69
2021/11/21 02:43:20;;;;;;;;;28.75;25.50;;;;;-147.17;100.00;50064.50;5039058;28;51078;-67
2021/11/21 02:45:48;;;;;;;;;33.75;28.25;;;;;-147.17;100.00;50036.94;5035260;28;51201;-69
2021/11/21 02:48:19;;;;;;;;;28.50;25.50;;;;;-147.17;100.00;50056.63;5038863;28;51012;-65
2021/11/21 02:50:45;;;;;;;;;27.25;25.00;;;;;-147.17;100.00;50044.81;5036815;28;51372;-67
2021/11/21 02:53:13;;;;;;;;;30.00;24.25;;;;;-147.17;100.00;50013.31;5036795;28;51086;-66
2021/11/21 02:55:38;;;;;;;;;28.25;25.25;;;;;-147.17;100.00;50017.25;5036870;28;51293;-65
2021/11/21 02:58:04;;;;;;;;;25.25;22.00;;;;;-147.17;100.00;50046.78;5037270;28;52021;-69
2021/11/21 03:00:30;;;;;;;;;33.25;27.50;;;;;-147.17;100.00;50044.81;5037065;28;51078;-71
2021/11/21 03:02:56;;;;;;;;;27.75;25.00;;;;;-147.17;100.00;50044.81;5040367;28;50924;-70
2021/11/21 03:05:22;;;;;;;;;26.75;22.25;;;;;-147.17;100.00;50072.38;5036822;28;50849;-71
2021/11/21 03:07:49;;;;;;;;;30.00;25.75;;;;;-147.17;100.00;50042.84;5041101;28;51277;-71
2021/11/21 03:10:19;;;;;;;;;26.75;24.75;;;;;-147.17;100.00;50080.25;5040219;28;51178;-71
2021/11/21 03:12:53;;;;;;;;;32.75;28.25;;;;;-147.17;100.00;50054.66;5024978;28;51000;-71
2021/11/21 03:15:20;;;;;;;;;28.25;26.25;;;;;-147.17;100.00;50042.84;5039157;28;51462;-71
2021/11/21 03:17:46;;;;;;;;;30.75;28.25;;;;;-147.17;100.00;50046.78;5036471;28;51088;-67
2021/11/21 03:20:14;;;;;;;;;34.00;28.00;;;;;-147.17;100.00;50048.75;5034676;28;51082;-67
2021/11/21 03:22:39;;;;;;;;;31.50;28.75;;;;;-147.17;100.00;50062.53;5027370;28;51080;-66
2021/11/21 03:25:06;;;;;;;;;26.00;24.00;;;;;-147.17;100.00;50033.00;5034561;28;51112;-65
2021/11/21 03:27:31;;;;;;;;;29.00;25.50;;;;;-147.17;100.00;50044.81;5033257;28;51438;-65
2021/11/21 03:29:57;;;;;;;;;29.75;28.00;;;;;-147.17;100.00;50064.50;5033360;28;51105;-65
2021/11/21 03:32:22;;;;;;;;;25.25;24.00;;;;;-147.17;100.00;50048.75;5031951;28;51684;-65
2021/11/21 03:34:48;;;;;;;;;35.00;28.75;;;;;-147.17;100.00;50068.44;5033501;28;51218;-66
2021/11/21 03:37:13;;;;;;;;;30.00;27.50;;;;;-147.17;100.00;50044.81;5031359;28;53023;-65
2021/11/21 03:39:38;;;;;;;;;32.50;30.75;;;;;-147.17;100.00;50062.53;5033410;28;50908;-67
2021/11/21 03:42:04;;;;;;;;;31.50;25.50;;;;;-147.17;100.00;50060.56;5033268;28;51330;-68
2021/11/21 03:44:30;;;;;;;;;23.50;23.00;;;;;-147.17;100.00;50062.53;5024393;28;51182;-69
2021/11/21 03:46:55;;;;;;;;;30.25;27.50;;;;;-147.17;100.00;50058.59;5029201;28;52405;-69
2021/11/21 03:49:21;;;;;;;;;28.50;26.75;;;;;-147.17;100.00;50048.75;5032960;28;51024;-68
2021/11/21 03:51:46;;;;;;;;;33.75;31.25;;;;;-147.17;100.00;50052.69;5029021;28;51064;-68
2021/11/21 03:54:12;;;;;;;;;30.25;28.00;;;;;-147.17;100.00;50048.75;5013565;28;51143;-69
2021/11/21 03:56:37;;;;;;;;;27.75;26.00;;;;;-147.17;100.00;50021.19;5025842;28;51172;-68
2021/11/21 03:59:03;;;;;;;;;31.50;27.75;;;;;-147.17;100.00;50046.78;5027080;28;51072;-68
2021/11/21 04:01:28;;;;;;;;;27.75;26.00;;;;;-147.17;100.00;50044.81;5013378;28;51114;-68
2021/11/21 04:03:54;;;;;;;;;38.50;34.75;;;;;-147.17;100.00;50044.81;5020535;28;50874;-68
2021/11/21 04:06:19;;;;;;;;;33.75;30.25;;;;;-147.17;100.00;50007.41;5032151;28;51154;-68
2021/11/21 04:08:45;;;;;;;;;30.50;27.25;;;;;-147.17;100.00;50001.50;5031365;28;51301;-68
2021/11/21 04:11:11;;;;;;;;;31.75;27.75;;;;;-147.17;100.00;50046.78;5031183;28;51098;-68
2021/11/21 04:13:37;;;;;;;;;29.50;26.50;;;;;-147.17;100.00;50040.88;5032785;28;51228;-68
2021/11/21 04:16:03;;;;;;;;;36.50;27.00;;;;;-147.17;100.00;50034.97;5032770;28;51187;-68
2021/11/21 04:18:28;;;;;;;;;29.50;26.00;;;;;-147.17;100.00;50031.03;5032519;28;51216;-68
2021/11/21 04:20:53;;;;;;;;;27.50;25.75;;;;;-147.17;100.00;50044.81;5032449;28;51136;-68
2021/11/21 04:23:20;;;;;;;;;33.00;28.25;;;;;-147.17;100.00;50040.88;5031747;28;50991;-68
2021/11/21 04:25:45;;;;;;;;;30.75;26.75;;;;;-147.17;100.00;50029.06;5032368;28;51902;-68
2021/11/21 04:28:11;;;;;;;;;30.75;25.00;;;;;-147.17;100.00;50021.19;5042710;28;50947;-68
2021/11/21 04:30:37;;;;;;;;;26.25;26.25;;;;;-147.17;100.00;50046.78;5034393;28;50857;-68
2021/11/21 04:33:03;;;;;;;;;34.25;30.75;;;;;-147.17;100.00;50011.34;5032647;28;50931;-68
2021/11/21 04:35:29;;;;;;;;;30.75;27.00;;;;;-147.17;100.00;50044.81;5031832;28;53743;-68
2021/11/21 04:37:55;;;;;;;;;26.75;24.50;;;;;-147.17;100.00;50033.00;5032760;28;50940;-69
2021/11/21 04:40:20;;;;;;;;;29.50;24.00;;;;;-147.17;100.00;50040.88;5030552;28;51050;-67
2021/11/21 04:42:46;;;;;;;;;27.50;22.00;;;;;-147.17;100.00;50066.47;5032521;28;51009;-68
2021/11/21 04:45:12;;;;;;;;;28.50;27.00;;;;;-147.17;100.00;50064.50;5032151;28;51802;-68
2021/11/21 04:47:38;;;;;;;;;28.75;26.25;;;;;-147.17;100.00;50025.13;5031156;28;51034;-69
2021/11/21 04:50:05;;;;;;;;;27.25;23.50;;;;;-147.17;100.00;49999.53;5032143;28;51437;-68
2021/11/21 04:52:31;;;;;;;;;28.25;22.50;;;;;-147.17;100.00;50044.81;5035993;28;51147;-68
2021/11/21 04:54:56;;;;;;;;;23.75;22.25;;;;;-147.17;100.00;50029.06;5033243;28;51278;-68
2021/11/21 04:57:21;;;;;;;;;32.25;26.50;;;;;-147.17;100.00;50033.00;5028014;28;50966;-69
2021/11/21 04:59:47;;;;;;;;;25.50;22.25;;;;;-147.17;100.00;50034.97;5027369;28;51415;-69
2021/11/21 05:02:13;;;;;;;;;34.00;26.50;;;;;-147.17;100.00;50021.19;5035695;28;51398;-69
2021/11/21 05:04:38;;;;;;;;;32.75;28.50;;;;;-147.17;100.00;49997.56;5035434;28;51735;-69
2021/11/21 05:07:03;;;;;;;;;28.25;26.50;;;;;-147.17;100.00;49991.66;5035765;28;50892;-69
2021/11/21 05:09:29;;;;;;;;;23.00;21.75;;;;;-147.17;100.00;49999.53;5034558;28;51003;-69
2021/11/21 05:11:54;;;;;;;;;26.25;21.25;;;;;-147.17;100.00;49987.72;5034494;28;51068;-69
2021/11/21 05:14:21;;;;;;;;;28.00;24.75;;;;;-147.17;100.00;50005.44;5026042;28;51616;-68
2021/11/21 05:16:48;;;;;;;;;25.25;22.50;;;;;-147.17;100.00;50021.19;5014455;28;51136;-68
2021/11/21 05:19:13;;;;;;;;;29.00;27.75;;;;;-147.17;100.00;50003.47;5022477;28;51078;-68
2021/11/21 05:21:39;;;;;;;;;26.75;24.25;;;;;-147.17;100.00;50015.28;5035713;28;51123;-68
2021/11/21 05:24:05;;;;;;;;;27.75;22.50;;;;;-147.17;100.00;50013.31;5035530;28;52159;-69
2021/11/21 05:26:30;;;;;;;;;26.00;22.00;;;;;-147.17;100.00;50044.81;5035491;28;50895;-68
2021/11/21 05:28:56;;;;;;;;;21.75;21.25;;;;;-147.17;100.00;50044.81;5036268;28;51790;-68
2021/11/21 05:31:24;;;;;;;;;25.75;22.50;;;;;-147.17;100.00;50011.34;5035239;28;51078;-68
2021/11/21 05:33:49;;;;;;;;;23.25;21.25;;;;;-147.17;100.00;50036.94;5033591;28;51180;-68
2021/11/21 05:36:15;;;;;;;;;23.00;21.50;;;;;-147.17;100.00;50038.91;5034717;28;50971;-68
2021/11/21 05:38:40;;;;;;;;;26.25;22.00;;;;;-147.17;100.00;50013.31;5033932;28;51242;-67
2021/11/21 05:41:06;;;;;;;;;27.75;26.00;;;;;-147.17;100.00;50021.19;5035218;28;51206;-67
2021/11/21 05:43:31;;;;;;;;;23.25;21.25;;;;;-147.17;100.00;50021.19;5034969;28;51125;-70
2021/11/21 05:45:57;;;;;;;;;26.00;21.75;;;;;-147.17;100.00;50001.50;5035171;28;51129;-67
2021/11/21 05:48:23;;;;;;;;;27.50;22.00;;;;;-147.17;100.00;50021.19;5034645;28;51077;-69
2021/11/21 05:50:48;;;;;;;;;24.75;23.25;;;;;-147.17;100.00;50019.22;5034974;28;51014;-68
2021/11/21 05:53:14;;;;;;;;;27.75;20.50;;;;;-147.17;100.00;50015.28;5033229;28;52135;-68
2021/11/21 05:55:39;;;;;;;;;25.50;22.50;;;;;-147.17;100.00;49987.72;5024581;28;51037;-68
2021/11/21 05:58:05;;;;;;;;;21.75;17.50;;;;;-147.17;100.00;50033.00;5016172;28;50942;-68
2021/11/21 06:00:30;;;;;;;;;25.75;23.75;;;;;-147.17;100.00;49993.63;5035284;28;51162;-69
2021/11/21 06:02:56;;;;;;;;;17.50;16.25;;;;;-147.17;100.00;50021.19;5048349;28;52968;-69
2021/11/21 06:05:22;;;;;;;;;19.00;17.50;;;;;-147.17;100.00;50009.38;5014702;28;51031;-69
2021/11/21 06:07:48;;;;;;;;;17.75;16.25;;;;;-147.17;100.00;50003.47;5019269;28;51113;-69
2021/11/21 06:10:14;;;;;;;;;27.75;22.75;;;;;-147.17;100.00;50036.94;5034919;28;51316;-69
2021/11/21 06:12:40;;;;;;;;;31.00;26.00;;;;;-147.17;100.00;50009.38;5034539;28;51814;-69
2021/11/21 06:15:08;;;;;;;;;23.25;21.25;;;;;-147.17;100.00;50009.38;5033175;28;51178;-69
2021/11/21 06:17:34;;;;;;;;;28.00;24.75;;;;;-147.17;100.00;49989.69;5034192;28;51035;-69
2021/11/21 06:19:59;;;;;;;;;28.75;17.00;;;;;-147.17;100.00;50021.19;5034592;28;51309;-69
2021/11/21 06:22:24;;;;;;;;;25.25;20.75;;;;;-147.17;100.00;50019.22;5034324;28;51730;-68
2021/11/21 06:24:50;;;;;;;;;26.75;25.25;;;;;-147.17;100.00;50009.38;5034542;28;50849;-68
2021/11/21 06:27:16;;;;;;;;;26.50;21.50;;;;;-147.17;100.00;50023.16;5030096;28;51139;-68
2021/11/21 06:29:42;;;;;;;;;25.75;21.50;;;;;-147.17;100.00;50013.31;5026963;28;51285;-68
2021/11/21 06:32:08;;;;;;;;;23.75;23.00;;;;;-147.17;100.00;49985.75;5013087;28;52048;-68
2021/11/21 06:34:33;;;;;;;;;21.25;21.25;;;;;-147.17;100.00;50009.38;5019526;28;50951;-68
2021/11/21 06:37:00;;;;;;;;;27.75;24.50;;;;;-147.17;100.00;49985.75;5034507;28;51031;-69
2021/11/21 06:39:26;;;;;;;;;21.50;20.00;;;;;-147.17;100.00;49977.88;5032754;28;51053;-69
2021/11/21 06:41:51;;;;;;;;;25.00;21.25;;;;;-147.17;100.00;50001.50;5033973;28;51636;-69
2021/11/21 06:44:17;;;;;;;;;23.75;21.00;;;;;-147.17;100.00;50033.00;5033942;28;51086;-68
2021/11/21 06:46:42;;;;;;;;;24.25;21.00;;;;;-147.17;100.00;50048.75;5031756;28;51237;-67
2021/11/21 06:49:08;;;;;;;;;24.50;22.00;;;;;-147.17;100.00;50007.41;5029984;28;51311;-67
2021/11/21 06:51:40;;;;;;;;;23.50;20.50;;;;;-147.17;100.00;50009.38;5014042;28;51986;-68
2021/11/21 06:54:08;;;;;;;;;29.25;28.00;;;;;-147.17;100.00;50042.84;5029227;28;51494;-68
2021/11/21 06:56:33;;;;;;;;;24.75;21.75;;;;;-147.17;100.00;50033.00;5027517;28;50901;-68
2021/11/21 06:58:58;;;;;;;;;20.00;17.75;;;;;-147.17;100.00;50021.19;5015792;28;51069;-68
2021/11/21 07:01:24;;;;;;;;;31.25;26.50;;;;;-147.17;100.00;50013.31;5048793;28;52746;-69
2021/11/21 07:03:50;;;;;;;;;18.50;18.00;;;;;-147.17;100.00;49989.69;5031672;28;51523;-68
2021/11/21 07:06:34;;;;;;;;;26.00;21.25;;;;;-147.17;100.00;50009.38;5014121;28;51285;-69
2021/11/21 07:09:00;;;;;;;;;22.25;21.50;;;;;-147.17;100.00;50017.25;5014056;28;51321;-68
2021/11/21 07:11:25;;;;;;;;;25.00;20.50;;;;;-147.17;100.00;49997.56;5032740;28;50945;-68
2021/11/21 07:13:51;;;;;;;;;17.00;16.00;;;;;-147.17;100.00;49993.63;5031950;28;51000;-69
2021/11/21 07:16:16;;;;;;;;;15.25;15.25;;;;;-147.17;100.00;50017.25;5033723;28;50984;-68
2021/11/21 07:18:41;;;;;;;;;21.00;20.00;;;;;-147.17;100.00;50017.25;5033504;28;51193;-69
2021/11/21 07:21:07;;;;;;;;;18.75;16.50;;;;;-147.17;100.00;49966.06;5030664;28;53106;-69
2021/11/21 07:23:35;;;;;;;;;20.00;17.50;;;;;-147.17;100.00;50015.28;5013728;28;51063;-68
2021/11/21 07:26:01;;;;;;;;;21.00;18.75;;;;;-147.17;100.00;49993.63;5013712;28;51053;-69
2021/11/21 07:28:27;;;;;;;;;18.50;16.50;;;;;-147.17;100.00;50027.09;5027888;28;51153;-69
2021/11/21 07:30:53;;;;;;;;;17.50;16.00;;;;;-147.17;100.00;50005.44;5033396;28;52004;-69
2021/11/21 07:33:19;;;;;;;;;24.75;19.50;;;;;-147.17;100.00;50025.13;5033542;28;51047;-69
2021/11/21 07:35:44;;;;;;;;;20.25;16.50;;;;;-147.17;100.00;50005.44;5033109;28;51059;-69
2021/11/21 07:38:10;;;;;;;;;19.00;16.25;;;;;-147.17;100.00;49993.63;5032317;28;51247;-69
2021/11/21 07:40:35;;;;;;;;;14.75;14.50;;;;;-147.17;100.00;50013.31;5033276;28;50974;-69
2021/11/21 07:43:01;;;;;;;;;20.75;17.00;;;;;-147.17;100.00;50017.25;5016987;28;51149;-69
2021/11/21 07:45:27;;;;;;;;;22.50;19.00;;;;;-147.17;100.00;50019.22;5033564;28;50959;-68
2021/11/21 07:47:52;;;;;;;;;20.50;19.00;;;;;-147.17;100.00;50003.47;5033238;28;51405;-68
2021/11/21 07:50:18;;;;;;;;;16.75;16.50;;;;;-147.17;100.00;50009.38;5031324;28;52847;-69
2021/11/21 07:52:43;;;;;;;;;17.25;15.00;;;;;-147.17;100.00;50040.88;5033016;28;51044;-68
2021/11/21 07:55:10;;;;;;;;;16.25;15.25;;;;;-147.17;100.00;50042.84;5032884;28;50999;-69
2021/11/21 07:57:35;;;;;;;;;17.75;16.00;;;;;-147.17;100.00;49977.88;5033177;28;51030;-69
2021/11/21 08:00:01;;;;;;;;;14.67;12.67;;;;;-147.17;100.00;49977.88;5031397;28;51197;-68
2021/11/21 08:02:26;;;;;;;;;16.25;14.00;;;;;-147.17;100.00;49993.63;5019873;28;51075;-69
2021/11/21 08:04:51;;;;;;;;;18.75;16.25;;;;;-147.17;100.00;50033.00;5029407;28;50925;-69
2021/11/21 08:07:17;;;;;;;;;18.50;15.00;;;;;-147.17;100.00;49999.53;5033057;28;51292;-69
2021/11/21 08:09:43;;;;;;;;;18.00;16.25;;;;;-147.17;100.00;50005.44;5032692;28;51043;-69
2021/11/21 08:12:09;;;;;;;;;20.25;17.25;;;;;-147.17;100.00;50001.50;5033079;28;50945;-69
2021/11/21 08:14:34;;;;;;;;;18.25;17.50;;;;;-147.17;100.00;49995.59;5030844;28;50987;-69
2021/11/21 08:17:00;;;;;;;;;20.25;18.25;;;;;-147.17;100.00;49985.75;5025247;28;51381;-68
2021/11/21 08:19:25;;;;;;;;;26.25;23.00;;;;;-147.17;100.00;50001.50;5029662;28;51148;-69
2021/11/21 08:21:50;;;;;;;;;21.50;19.50;;;;;-147.17;100.00;49993.63;5032716;28;50848;-68
2021/11/21 08:24:16;;;;;;;;;25.75;24.50;;;;;-147.17;100.00;50009.38;5032359;28;51165;-67
2021/11/21 08:26:41;;;;;;;;;24.75;22.75;;;;;-147.17;100.00;49993.63;5031706;28;51152;-68
2021/11/21 08:29:07;;;;;;;;;25.00;22.75;;;;;-147.17;100.00;49993.63;5033125;28;50969;-67
2021/11/21 08:31:32;;;;;;;;;25.00;22.00;;;;;-147.17;100.00;50033.00;5031272;28;51136;-68
2021/11/21 08:33:58;;;;;;;;;25.50;23.75;;;;;-147.17;100.00;50029.06;5029555;28;51154;-68
2021/11/21 08:36:23;;;;;;;;;23.25;21.25;;;;;-147.17;100.00;50001.50;5030532;28;51264;-68
2021/11/21 08:38:49;;;;;;;;;27.50;22.50;;;;;-147.17;100.00;49997.56;5012437;28;52806;-68
2021/11/21 08:41:14;;;;;;;;;26.00;22.25;;;;;-147.17;100.00;50007.41;5012280;28;51213;-68
2021/11/21 08:43:40;;;;;;;;;24.00;23.50;;;;;-147.17;100.00;49977.88;5018289;28;51070;-68
2021/11/21 08:46:05;;;;;;;;;24.25;21.75;;;;;-147.17;100.00;49995.59;5032498;28;51165;-69
2021/11/21 08:48:31;;;;;;;;;21.25;20.75;;;;;-147.17;100.00;49985.75;5031908;28;52277;-68
2021/11/21 08:50:57;;;;;;;;;22.25;20.75;;;;;-147.17;100.00;49977.88;5030584;28;51129;-69
2021/11/21 08:53:23;;;;;;;;;22.25;17.25;;;;;-147.17;100.00;49997.56;5028764;28;51280;-70
2021/11/21 08:55:48;;;;;;;;;21.25;19.50;;;;;-147.17;100.00;50025.13;5032447;28;51114;-69
2021/11/21 08:58:14;;;;;;;;;21.00;17.75;;;;;-147.17;100.00;49985.75;5031534;28;52020;-70
2021/11/21 09:00:39;;;;;;;;;21.25;21.00;;;;;-147.17;100.00;50001.50;5032296;28;51094;-69
2021/11/21 09:03:04;;;;;;;;;26.00;23.75;;;;;-147.17;100.00;49977.88;5031496;28;51219;-69
2021/11/21 09:05:30;;;;;;;;;25.50;23.25;;;;;-147.17;100.00;50013.31;5031612;28;51233;-68
2021/11/21 09:07:56;;;;;;;;;21.50;17.75;;;;;-147.17;100.00;49971.97;5031535;28;51921;-68
2021/11/21 09:10:22;;;;;;;;;23.50;21.50;;;;;-147.17;100.00;49989.69;5031075;28;50884;-69
2021/11/21 09:12:48;;;;;;;;;22.00;19.50;;;;;-147.17;100.00;50017.25;5031248;28;51119;-69
2021/11/21 09:15:18;;;;;;;;;18.75;17.25;;;;;-147.17;100.00;50007.41;5029844;28;51081;-69
2021/11/21 09:17:45;;;;;;;;;21.00;20.25;;;;;-147.17;100.00;50013.31;5024120;28;51103;-68
2021/11/21 09:20:11;;;;;;;;;24.25;18.75;;;;;-147.17;100.00;50033.00;5026861;28;51173;-71
2021/11/21 09:22:37;;;;;;;;;18.50;16.00;;;;;-147.17;100.00;50005.44;5012070;28;50977;-69
2021/11/21 09:25:03;;;;;;;;;20.50;16.25;;;;;-147.17;100.00;49977.88;5027131;28;50976;-69
2021/11/21 09:27:29;;;;;;;;;19.25;15.25;;;;;-147.17;100.00;50025.13;5029777;28;52457;-69
2021/11/21 09:29:54;;;;;;;;;19.75;17.00;;;;;-147.17;100.00;50003.47;5028498;28;50977;-69
2021/11/21 09:32:20;;;;;;;;;19.00;18.25;;;;;-147.17;100.00;50019.22;4993846;28;51052;-69
2021/11/21 09:34:45;;;;;;;;;20.25;17.00;;;;;-147.17;100.00;49999.53;5024956;28;51358;-69
2021/11/21 09:37:11;;;;;;;;;20.50;17.00;;;;;-147.17;100.00;49979.84;5032950;28;51791;-70
2021/11/21 09:39:36;;;;;;;;;20.75;19.00;;;;;-147.17;100.00;50021.19;5035065;28;50996;-68
2021/11/21 09:42:04;;;;;;;;;18.25;16.25;;;;;-147.17;100.00;49973.94;5035191;28;51106;-68
2021/11/21 09:44:29;;;;;;;;;24.50;22.00;;;;;-147.17;100.00;50011.34;5032101;28;51270;-68
2021/11/21 09:46:57;;;;;;;;;19.25;18.25;;;;;-147.17;100.00;50021.19;5034107;28;51171;-69
2021/11/21 09:49:26;;;;;;;;;21.75;19.50;;;;;-147.17;100.00;50005.44;5034501;28;51145;-68
2021/11/21 09:51:51;;;;;;;;;21.75;19.00;;;;;-147.17;100.00;50007.41;5034100;28;51029;-69
2021/11/21 09:54:18;;;;;;;;;23.25;20.00;;;;;-147.17;100.00;50009.38;5034167;28;51070;-68
2021/11/21 09:56:45;;;;;;;;;24.00;23.75;;;;;-147.17;100.00;49997.56;5032313;28;51154;-69
2021/11/21 09:59:10;;;;;;;;;25.75;23.50;;;;;-147.17;100.00;49981.81;5014723;28;50921;-68
2021/11/21 10:01:42;;;;;;;;;17.75;17.00;;;;;-147.17;100.00;49973.94;5014636;28;50973;-69
2021/11/21 10:04:11;;;;;;;;;24.00;19.25;;;;;-147.17;100.00;49989.69;5021979;28;51231;-68
2021/11/21 10:06:45;;;;;;;;;22.00;19.50;;;;;-147.17;100.00;49985.75;5042707;28;52482;-70
2021/11/21 10:09:12;;;;;;;;;21.25;20.75;;;;;-147.17;100.00;50001.50;5034351;28;51240;-69
2021/11/21 10:11:59;;;;;;;;;18.00;16.50;;;;;-147.17;100.00;49995.59;5034316;28;51130;-69
2021/11/21 10:14:25;;;;;;;;;14.75;12.25;;;;;-147.17;100.00;49968.03;5034186;28;51204;-69
2021/11/21 10:16:51;;;;;;;;;17.00;16.00;;;;;-147.17;100.00;50005.44;5033681;28;51851;-69
2021/11/21 10:19:17;;;;;;;;;14.00;13.00;;;;;-147.17;100.00;49977.88;5031529;28;51327;-68
2021/11/21 10:21:45;;;;;;;;;19.50;16.75;;;;;-147.17;100.00;49970.00;5032368;28;51203;-69
2021/11/21 10:24:23;;;;;;;;;17.75;17.25;;;;;-147.17;100.00;49989.69;5032883;28;51077;-69
2021/11/21 10:27:11;;;;;;;;;20.50;17.75;;;;;-147.17;100.00;49999.53;5035015;28;51970;-67
2021/11/21 10:29:39;;;;;;;;;25.50;23.25;;;;;-147.17;100.00;49962.13;5031952;28;51299;-68
2021/11/21 10:32:14;;;;;;;;;19.75;18.25;;;;;-147.17;100.00;50013.31;5017184;28;51273;-69
2021/11/21 10:34:57;;;;;;;;;23.50;22.75;;;;;-147.17;100.00;49962.13;5033384;28;51131;-69
2021/11/21 10:37:35;;;;;;;;;17.75;16.75;;;;;-147.17;100.00;49975.91;5033048;28;52087;-66
2021/11/21 10:40:03;;;;;;;;;21.50;21.00;;;;;-147.17;100.00;49977.88;5034800;28;51257;-67
2021/11/21 10:42:28;;;;;;;;;24.25;23.00;;;;;-147.17;100.00;49999.53;5032048;28;51434;-66
2021/11/21 10:44:54;;;;;;;;;24.25;23.50;;;;;-147.17;100.00;49977.88;5031609;28;51146;-67
2021/11/21 10:47:20;;;;;;;;;22.75;20.25;;;;;-147.17;100.00;49997.56;5034630;28;51073;-67
2021/11/21 10:49:51;;;;;;;;;23.25;22.25;;;;;-147.17;100.00;50021.19;5032700;28;51172;-66
2021/11/21 10:52:19;;;;;;;;;29.00;28.00;;;;;-147.17;100.00;50009.38;5032789;28;51099;-66